Directors' Transactions

See who's buying and selling shares in their own company

Market Index publishes the share transactions made by company directors of every ASX listed company.

  • Daily monitoring of over 2,000 companies
  • Every “Inside Trade” is disclosed

Why follow "Insider Activity"?

Monitoring directors' holdings is based on the theory that no one buys shares in a company expecting the share price to fall.

Directors' have a better understanding of their business and its future growth prospects. They also have a vested interest in its success.

By uncovering who’s buying and selling shares in their own company, Australian investors can extend their scope of research beyond fundamental and technical analysis.

About our data

  • Updated daily
  • Historical data from 2013
  • Ordinary shares & options
  • Issues, transfers & expiries
  • Direct & indirectly held investments

Read the Editor's Notes for background information on the data and its limitations.

Where is the data from?

Company directors' must notify the market of all share transactions they make in their own company.

The ASX requires them to lodge an “Appendix 3Y - Change of Director's Interest Notice” within 5 business days[1].

Market Index manually documents every Appendix 3Y each day.

The 100 Most Recent Transactions

Code Company Date Director Type Amount Price Value
MND Monadelphous Group Ltd 24/11/20 Robert Velletri Issued 300,000 $12.28 $3,684,000
WSA Western Areas Ltd 24/11/20 Daniel Lougher Issued 343,920 $2.18 $749,745
WGX Westgold Resources Ltd 24/11/20 Peter Cook Buy +200,000 $2.247 $449,484
NXT NEXTDC Ltd 23/11/20 Craig Scroggie Issued 113,989 $11.89 $1,355,329
INA Ingenia Communities Group 23/11/20 Robert Morrison Buy +22,000 $4.59 $100,980
ORI Orica Ltd 23/11/20 Alberto Calderon Cancelled 207,841 $16.46 $3,421,062
VRT Virtus Health Ltd 23/11/20 Kate Munnings Issued 204,082 $5.44 $1,110,206
RCL Readcloud Ltd 23/11/20 Cristiano (Cris) Nicolli Exercise 125,000 $0.30 $37,500
RCL Readcloud Ltd 23/11/20 Cristiano (Cris) Nicolli Buy +125,000 $0.30 $37,500
ADO Anteotech Ltd 23/11/20 Matthew Sanderson Buy +2,628,450 $0.02 $52,569
ADO Anteotech Ltd 23/11/20 Matthew Sanderson Exercise 2,628,450 $0.02 $52,569
CXZ Connexion Telematics Ltd 23/11/20 Aaryn Nania Exercise 10,000,000 $0.017 $170,000
CXZ Connexion Telematics Ltd 23/11/20 Aaryn Nania Buy +10,000,000 $0.017 $170,000
DDR Dicker Data Ltd 23/11/20 Vladimir Mitnovetski Buy +5,000 $9.95 $49,750
LLC Lendlease Group 23/11/20 Elizabeth Proust Buy +5,000 $14.288 $71,440
RDM Red Metal Ltd 23/11/20 Joshua Pitt Issued 500,000 $0.115 $57,500
RDM Red Metal Ltd 23/11/20 Russell Barwick Issued 500,000 $0.115 $57,500
RDM Red Metal Ltd 23/11/20 Robert Rutherford Issued 1,000,000 $0.115 $115,000
RIC Ridley Corporation Ltd 23/11/20 Quinton Hildebrand Issued 270,567 $0.95 $257,038
RIC Ridley Corporation Ltd 23/11/20 Quinton Hildebrand Issued 1,566,108 $0.95 $1,487,802
SLX SILEX Systems Ltd 23/11/20 Michael Goldsworthy Issued 100,000 $0.585 $58,500
SLX SILEX Systems Ltd 23/11/20 Michael Goldsworthy Issued 150,000 $0.585 $87,750
SPZ Smart Parking Ltd 23/11/20 Paul Gillespie Issued 624,375 $0.175 $109,265
TRM Truscott Mining Corporation Ltd 23/11/20 Peter Smith Issued 6,600,000 $0.02 $132,000
TRM Truscott Mining Corporation Ltd 23/11/20 Ewan Smith Issued 2,700,000 $0.02 $54,000
TRM Truscott Mining Corporation Ltd 23/11/20 Michael Povey Issued 4,950,000 $0.02 $99,000
TRL Tanga Resources Ltd 23/11/20 Steven Michael Issued 1,683,672 $0.05 $84,183
TRL Tanga Resources Ltd 23/11/20 Christopher(Chris) van Wijk Issued 166,667 $0.03 $5,000
TRL Tanga Resources Ltd 23/11/20 Christopher(Chris) van Wijk Issued 8,755,098 $0.05 $437,754
TRL Tanga Resources Ltd 23/11/20 Andrew Pardey Issued 2,000,000 $0.03 $60,000
TRL Tanga Resources Ltd 23/11/20 Andrew Pardey Issued 8,755,098 $0.05 $437,754
LOV Lovisa Holdings Ltd 23/11/20 Shane Fallscheer Sell -270,000 $11.01 $2,972,700
LOV Lovisa Holdings Ltd 23/11/20 Shane Fallscheer Sell -30,542 $11.174 $341,291
FPC Fat Prophets Global Contrarian Fund Ltd 23/11/20 Katrina Vanstone Buy +4,219 $1.185 $4,999
APT Afterpay Ltd 23/11/20 Anthony Eisen Issued 40,203 $98.70 $3,968,036
APT Afterpay Ltd 23/11/20 Nicholas Molnar Issued 40,203 $98.70 $3,968,036
IGO IGO Ltd 20/11/20 Peter Bradford Issued 253,961 $4.82 $1,224,092
AZY Antipa Minerals Ltd 20/11/20 Gary Johnson Issued 6,000,000 $0.05 $300,000
AZY Antipa Minerals Ltd 20/11/20 Peter Buck Issued 6,000,000 $0.05 $300,000
AZY Antipa Minerals Ltd 20/11/20 Mark Rodda Issued 12,000,000 $0.05 $600,000
AZY Antipa Minerals Ltd 20/11/20 Stephen Power Issued 12,000,000 $0.05 $600,000
AZY Antipa Minerals Ltd 20/11/20 Roger Mason Issued 12,000,000 $0.05 $600,000
BAR Barra Resources Ltd 20/11/20 Grant Mooney Issued 6,000,000 $0.036 $216,000
BAR Barra Resources Ltd 20/11/20 Jonathan Young Issued 6,000,000 $0.036 $216,000
BAR Barra Resources Ltd 20/11/20 Gary Berrell Issued 6,000,000 $0.036 $216,000
BOE Boss Energy Ltd 20/11/20 Peter O'Connor Issued 1,200,000 $0.067 $80,400
BOE Boss Energy Ltd 20/11/20 Duncan Craib Issued 1,500,000 $0.067 $100,500
BOE Boss Energy Ltd 20/11/20 Duncan Craib Transfer 6,000,000 $0.063 $378,000
BOE Boss Energy Ltd 20/11/20 Duncan Craib Issued 2,500,000 $0.063 $157,500
ELD Elders Ltd 20/11/20 Mark Allison Sell -120,725 $10.98 $1,325,584
KAT Katana Capital Ltd 20/11/20 Dalton Gooding Buy +553 $0.879 $486
NEA Nearmap Ltd 20/11/20 Robert Newman Issued 687,371 $0.918 $631,000
PAN Panoramic Resources Ltd 20/11/20 Rickman Rajasooriar Issued 7,416,488 $0.13 $964,143
PNR Pantoro Ltd 20/11/20 Scott Huffadine Issued 884,084 $0.19 $167,975
PNR Pantoro Ltd 20/11/20 Paul Cmrlec Issued 1,178,780 $0.19 $223,968
PPS Praemium Ltd 20/11/20 Michael Ohanessian Issued 332,109 $0.65 $215,870
QHL Quickstep Holdings Ltd 20/11/20 Patrick Largier Buy +300,000 $0.087 $26,100
GSS Genetic Signatures Ltd 20/11/20 John Melki Buy +250,000 $1.75 $437,500
IXU Ixup Ltd 20/11/20 Julian Babarczy Buy +4,545,454 $0.055 $249,999
RHY RHYTHM Biosciences Ltd 20/11/20 Trevor Lockett Issued 1,500,000 $0.20 $300,000
LSF L1 Long Short Fund Ltd 20/11/20 Raphael Lamm Buy +136,000 $1.907 $259,352
LSF L1 Long Short Fund Ltd 20/11/20 Mark Landau Buy +286,000 $1.907 $545,402
ADD Adavale Resources Ltd 20/11/20 Grant Pierce Buy +106,383 $0.047 $5,000
ARE Argonaut Resources NL 20/11/20 Lindsay Owler Issued 24,000,000 $0.007 $168,000
CDM Cadence Capital Ltd 20/11/20 Karl Siegling Buy +2,000 $0.844 $1,687
LOV Lovisa Holdings Ltd 20/11/20 Shane Fallscheer Sell -106,958 $11.039 $1,180,709
ALC Alcidion Group Ltd 20/11/20 Malcolm Pradhan Issued 563,309 $0.19 $107,028
ALC Alcidion Group Ltd 20/11/20 Katrina (Kate) Doyle (Quirke) Issued 2,547,511 $0.19 $484,027
FPC Fat Prophets Global Contrarian Fund Ltd 20/11/20 Michael Gallagher Buy +25,000 $1.189 $29,725
GDG Generation Development Group Ltd 20/11/20 Robert Coombe Buy +500,000 $0.65 $325,000
MKG Mako Gold Ltd 20/11/20 Michele Muscillo Issued 1,500,000 $0.046 $69,000
MKG Mako Gold Ltd 20/11/20 Steven Zaninovich Issued 1,000,000 $0.046 $46,000
MKG Mako Gold Ltd 20/11/20 Peter Ledwidge Issued 2,000,000 $0.046 $92,000
ADD Adavale Resources Ltd 19/11/20 Grant Pierce Buy +104,168 $0.048 $5,000
JHX James Hardie Industries Plc 19/11/20 Moe Nozari Buy +2,000 $29.319 $58,638
NEA Nearmap Ltd 19/11/20 Peter James Transfer 588,236 $2.38 $1,400,001
AUB AUB Group Ltd 19/11/20 David Clarke Buy +3,000 $17.25 $51,750
CDM Cadence Capital Ltd 19/11/20 Karl Siegling Buy +8,000 $0.841 $6,724
ELD Elders Ltd 19/11/20 Robyn Clubb Buy +2,000 $11.10 $22,200
JRL Jindalee Resources Ltd 19/11/20 Justin Mannolini Transfer 109,692 $0.75 $82,269
LBL Laserbond Ltd 19/11/20 Philip Suriano Issued 50,000 $0.395 $19,750
PLS Pilbara Minerals Ltd 19/11/20 Kenneth Brinsden Issued 560,000 $0.27 $151,200
SRH Saferoads Holdings Ltd 19/11/20 David Cleland Issued 22,113 $0.23 $5,086
SRH Saferoads Holdings Ltd 19/11/20 Darren Hotchkin Issued 406,912 $0.23 $93,590
SRH Saferoads Holdings Ltd 19/11/20 David Ashmore Issued 60,948 $0.23 $14,018
SXL Southern Cross Media Group Ltd 19/11/20 Robert (Rob) Murray Buy +24,673 $2.033 $50,148
WES Wesfarmers Ltd 19/11/20 Mike Roche Buy +2,000 $47.873 $95,745
CM8 Crowd Media Holdings Ltd 19/11/20 Domenic Carosa Exercise 2,000,000 $0.055 $110,000
CM8 Crowd Media Holdings Ltd 19/11/20 Domenic Carosa Buy +2,000,000 $0.055 $110,000
CM8 Crowd Media Holdings Ltd 19/11/20 Domenic Carosa Exercise 50 $0.04 $2
CM8 Crowd Media Holdings Ltd 19/11/20 Domenic Carosa Issued 2,500,000 $0.05 $125,000
GDF Garda Property Group 19/11/20 Matthew Madsen Issued 5,000,000 $1.16 $5,800,000
PAR Paradigm Biopharmaceuticals Ltd 19/11/20 Christopher Fullerton Transfer 1,000,000 $3.05 $3,050,000
TKM Trek Metals Ltd 19/11/20 Anthony (Tony) Leibowitz Buy +168,613 $0.067 $11,295
AUR Auris Minerals Ltd 19/11/20 Robert Martin Exercise 6,250,000 $0.08 $500,000
AUR Auris Minerals Ltd 19/11/20 Robert Martin Buy +6,250,000 $0.08 $500,000
JDR Jadar Resources Ltd 19/11/20 Navinderjeet (Navin) Singh Sidhu Buy +200,000 $0.03 $6,000
ADT Adriatic Metals Plc 19/11/20 Sanela Karic Buy +1,000,000 $2.18 $2,180,000
ADT Adriatic Metals Plc 19/11/20 Peter Bilbe Buy +600,000 $0.30 $180,000
ADT Adriatic Metals Plc 19/11/20 Peter Bilbe Exercise 600,000 $0.30 $180,000
 

Looking for older transactions?

Use the “Search Box” (top right of this website) to find the individual company page of any ASX listed company. All historical director transactions for that company will be listed.

 

Editor's Notes

Why tracking directors' transactions isn't simple.

There’s no centralised database of Directors' Transactions for ASX companies.

The market simply receives an endless stream of 3Y Announcement PDFs. The data in these PDFs must be manually compiled.

To complicate the matter, a director's shareholding can be spread between multiple entities (both directly and indirectly owned) and contain a convoluted mess of ordinary shares, options and performance rights. Throw in a change of company name or a typo by the director themselves and you can see the difficulties we encounter.

We do our best to accurately document and decipher these cryptic paper trails for you, but we can’t guarantee they'll be error free. You can cross check any transaction we list with the corresponding ASX announcement. These are usually released within 7 days of the transaction date.